»·PEaware :: NKS788 KSAN-KLAS

NKS788 :: KSAN-KLAS

FLIGHT INFORMATION

Flight Status: Arrived
Operator:
Spirit Airlines
More flights by this operator :: More flights under this callsign
Pilot: Sam F. (29954)
Aircraft: AIRBUS A319
(A319)
More flights by this aircraft type
Origin: KSAN San Diego Intl-Lindbergh
United States
Destination: KLAS McCarran Intl
United States
More flights between these airports :: More routes between these airports
Route: +YELAH MISEN KEPEC6
File this flight plan on PilotEdge
Remarks: RMK / SIMBRIEF
Altitude:
(Current/Filed)
35,000ft
Speed:
(Current/Filed)
474kts
Departed: 24-Jul-20 03:05 PM
Arrived: 24-Jul-20 03:48 PM
Distance/Time
Traveled:
224nm/0:42
Distance/Time
To Go:
Arrived

Flight Plot

Page will automatically refresh every two minutes.


Map Options




Map Legend


Flown Route
Filed Route
Departure Airport
Arrival Airport
Navaid (VOR, NDB)
Fix

Horizontal Profiles

Position Reports

Time Latitude Longitude Heading Altitude Ground
Speed
24-Jul-20 14:43 32.733689 -117.198945 147 19ft 0kts
24-Jul-20 14:44 32.733689 -117.198945 147 19ft 0kts
24-Jul-20 14:45 32.733689 -117.198945 147 19ft 0kts
24-Jul-20 14:46 32.733689 -117.198945 147 19ft 0kts
24-Jul-20 14:47 32.733689 -117.198945 147 19ft 0kts
24-Jul-20 14:48 32.733689 -117.198945 147 19ft 0kts
24-Jul-20 14:50 32.733689 -117.198945 147 19ft 0kts
24-Jul-20 14:51 32.733689 -117.198945 147 19ft 0kts
24-Jul-20 14:52 32.733689 -117.198945 147 19ft 0kts
24-Jul-20 14:53 32.733689 -117.198945 147 19ft 0kts
24-Jul-20 14:54 32.733690 -117.198945 147 19ft 0kts
24-Jul-20 14:55 32.734133 -117.199285 144 19ft 2kts
24-Jul-20 14:56 32.734000 -117.199680 12 19ft 0kts
24-Jul-20 14:57 32.734001 -117.199680 12 19ft 0kts
24-Jul-20 14:58 32.734145 -117.199641 12 19ft 0kts
24-Jul-20 14:59 32.734236 -117.199617 12 19ft 3kts
24-Jul-20 15:00 32.734292 -117.196976 107 19ft 14kts
24-Jul-20 15:01 32.733061 -117.191883 105 21ft 18kts
24-Jul-20 15:02 32.731439 -117.185154 104 19ft 23kts
24-Jul-20 15:03 32.729636 -117.177747 106 23ft 21kts
24-Jul-20 15:04 32.730541 -117.177272 286 25ft 36kts
24-Jul-20 15:05 32.744905 -117.217516 309 1438ft 161kts
24-Jul-20 15:06 32.771363 -117.267718 301 3580ft 213kts
24-Jul-20 15:07 32.810680 -117.335069 306 6108ft 277kts
24-Jul-20 15:08 32.858734 -117.409293 305 9571ft 291kts
24-Jul-20 15:09 32.911583 -117.490364 311 11946ft 335kts
24-Jul-20 15:10 33.006832 -117.492144 23 13421ft 404kts
24-Jul-20 15:11 33.117755 -117.440003 21 15421ft 441kts
24-Jul-20 15:12 33.236026 -117.386692 20 17671ft 460kts
24-Jul-20 15:13 33.355015 -117.333091 20 20962ft 444kts
24-Jul-20 15:14 33.470805 -117.280828 20 23083ft 451kts
24-Jul-20 15:15 33.590540 -117.226619 19 24733ft 466kts
24-Jul-20 15:16 33.713389 -117.170808 19 26230ft 479kts
24-Jul-20 15:17 33.839612 -117.113267 19 27653ft 490kts
24-Jul-20 15:18 33.968198 -117.054496 18 29129ft 496kts
24-Jul-20 15:19 34.095915 -116.995832 18 30885ft 490kts
24-Jul-20 15:20 34.226181 -116.936104 18 30966ft 502kts
24-Jul-20 15:21 34.357070 -116.875693 19 30958ft 501kts
24-Jul-20 15:21 34.465951 -116.825244 19 30938ft 501kts
24-Jul-20 15:23 34.619095 -116.754085 19 30929ft 502kts
24-Jul-20 15:23 34.727814 -116.703441 19 30276ft 497kts
24-Jul-20 15:25 34.863501 -116.600764 37 29106ft 495kts
24-Jul-20 15:26 34.973996 -116.497421 37 28102ft 501kts
24-Jul-20 15:27 35.086396 -116.393547 37 27094ft 506kts
24-Jul-20 15:28 35.200339 -116.288083 38 26097ft 506kts
24-Jul-20 15:28 35.294624 -116.200313 38 25262ft 507kts
24-Jul-20 15:30 35.422876 -116.080727 38 23930ft 471kts
24-Jul-20 15:30 35.506399 -116.002595 39 22094ft 440kts
24-Jul-20 15:32 35.610758 -115.889424 47 19040ft 414kts
24-Jul-20 15:32 35.677423 -115.807007 46 17112ft 402kts
24-Jul-20 15:33 35.755609 -115.711853 46 15007ft 375kts
24-Jul-20 15:35 35.836217 -115.613763 46 13096ft 315kts
24-Jul-20 15:35 35.885584 -115.553510 46 12532ft 291kts
24-Jul-20 15:37 35.952533 -115.471589 46 11740ft 287kts
24-Jul-20 15:37 35.999835 -115.413586 46 11305ft 286kts
24-Jul-20 15:39 36.027204 -115.313771 98 10449ft 277kts
24-Jul-20 15:39 36.021029 -115.235920 97 9445ft 268kts
24-Jul-20 15:40 36.014743 -115.147418 97 8540ft 247kts
24-Jul-20 15:41 36.008961 -115.063205 97 7320ft 243kts
24-Jul-20 15:42 36.007993 -114.980646 62 6081ft 245kts
24-Jul-20 15:43 36.067461 -114.958442 327 4200ft 239kts
24-Jul-20 15:44 36.072600 -115.024339 269 3796ft 189kts
24-Jul-20 15:45 36.073724 -115.080617 267 2916ft 144kts
24-Jul-20 15:46 36.073734 -115.130156 266 2208ft 140kts
24-Jul-20 15:47 36.074728 -115.155167 297 2187ft 1kts
24-Jul-20 15:48 36.075700 -115.156733 324 2187ft 14kts

Navigation Log

Ident Type
Flight plan parsing failed, navigation log unavailable